Time;durP1;ratioP1;P1;durP2;ratioP2;P2;SDS_P1;SDS_P2;PMS_P1;PMS_P2;Temp;Humidity;BMP_temperature;BMP_pressure;BME280_temperature;BME280_humidity;BME280_pressure;Samples;Min_cycle;Max_cycle;Signal;HPM_P1;HPM_P2
2021/03/09 00:00:05;;;;;;;25.05;13.48;;;;;;;;;;5048406;28;20274;-80
2021/03/09 00:02:34;;;;;;;21.77;10.73;;;;;;;;;;5046828;28;20025;-80
2021/03/09 00:05:00;;;;;;;24.73;12.65;;;;;;;;;;5035648;28;20024;-80
2021/03/09 00:07:26;;;;;;;22.40;13.13;;;;;;;;;;5045235;28;20018;-82
2021/03/09 00:12:46;;;;;;;22.33;11.02;;;;;;;;;;5857607;22;20044;-83
2021/03/09 00:15:12;;;;;;;21.95;9.60;;;;;;;;;;5076626;28;20013;-81
2021/03/09 00:17:39;;;;;;;19.75;10.65;;;;;;;;;;5075163;28;20088;-82
2021/03/09 00:20:06;;;;;;;19.50;9.65;;;;;;;;;;5074431;28;20025;-81
2021/03/09 00:22:32;;;;;;;21.30;10.10;;;;;;;;;;5073742;28;20067;-79
2021/03/09 00:30:07;;;;;;;16.05;8.60;;;;;;;;;;5012588;28;20041;-77
2021/03/09 00:32:33;;;;;;;14.68;8.55;;;;;;;;;;4998973;28;20026;-75
2021/03/09 00:34:59;;;;;;;11.32;7.55;;;;;;;;;;5000552;28;20025;-77
2021/03/09 00:37:25;;;;;;;12.88;7.90;;;;;;;;;;5000752;28;20046;-76
2021/03/09 00:39:52;;;;;;;13.57;7.40;;;;;;;;;;5000201;28;20467;-79
2021/03/09 00:42:18;;;;;;;14.10;8.35;;;;;;;;;;5000376;28;20032;-76
2021/03/09 00:44:46;;;;;;;14.32;8.45;;;;;;;;;;5022877;28;20018;-78
2021/03/09 00:47:13;;;;;;;13.88;7.25;;;;;;;;;;4998985;28;20034;-78
2021/03/09 00:49:39;;;;;;;13.75;8.00;;;;;;;;;;5001454;28;20061;-79
2021/03/09 00:52:05;;;;;;;16.27;7.55;;;;;;;;;;5002216;28;20038;-78
2021/03/09 00:54:31;;;;;;;14.80;7.93;;;;;;;;;;5023146;28;20018;-80
2021/03/09 00:56:58;;;;;;;14.45;7.72;;;;;;;;;;5002646;28;20026;-79
2021/03/09 00:59:24;;;;;;;12.07;7.10;;;;;;;;;;4998282;28;20086;-79
2021/03/09 01:01:50;;;;;;;14.07;8.05;;;;;;;;;;4993331;28;20061;-79
2021/03/09 01:04:17;;;;;;;11.15;6.85;;;;;;;;;;4999159;28;20021;-80
2021/03/09 01:06:43;;;;;;;14.55;8.00;;;;;;;;;;4995487;28;20023;-79
2021/03/09 01:09:09;;;;;;;13.32;6.57;;;;;;;;;;4997544;28;20100;-79
2021/03/09 01:11:39;;;;;;;12.55;6.50;;;;;;;;;;4997202;28;20058;-79
2021/03/09 01:14:05;;;;;;;14.35;7.10;;;;;;;;;;4995938;28;20101;-78
2021/03/09 01:16:31;;;;;;;9.13;5.97;;;;;;;;;;4998086;28;20086;-80
2021/03/09 01:18:57;;;;;;;11.32;6.35;;;;;;;;;;4991222;28;20026;-79
2021/03/09 01:21:23;;;;;;;12.85;5.88;;;;;;;;;;4981463;28;20076;-79
2021/03/09 01:23:49;;;;;;;10.00;6.18;;;;;;;;;;4996571;28;20459;-77
2021/03/09 01:26:15;;;;;;;13.27;6.15;;;;;;;;;;5003075;28;20018;-78
2021/03/09 01:28:41;;;;;;;14.15;6.72;;;;;;;;;;5002774;28;20084;-69
2021/03/09 01:31:08;;;;;;;11.95;6.40;;;;;;;;;;5020497;28;20113;-79
2021/03/09 01:33:34;;;;;;;11.98;6.07;;;;;;;;;;5003222;28;20022;-77
2021/03/09 01:36:00;;;;;;;10.25;5.50;;;;;;;;;;5002911;28;20049;-76
2021/03/09 01:38:26;;;;;;;10.73;5.82;;;;;;;;;;5020836;28;20351;-77
2021/03/09 01:40:52;;;;;;;13.13;5.40;;;;;;;;;;5021050;28;20029;-78
2021/03/09 01:43:19;;;;;;;14.13;6.93;;;;;;;;;;5017024;28;20061;-75
2021/03/09 01:45:45;;;;;;;9.57;5.25;;;;;;;;;;5017260;28;20014;-78
2021/03/09 01:48:11;;;;;;;10.63;5.20;;;;;;;;;;5017696;28;20018;-77
2021/03/09 01:50:39;;;;;;;7.43;5.45;;;;;;;;;;4999749;28;20028;-76
2021/03/09 01:53:07;;;;;;;11.13;5.82;;;;;;;;;;4999607;28;20448;-76
2021/03/09 01:55:33;;;;;;;10.32;6.07;;;;;;;;;;4999722;28;20028;-81
2021/03/09 01:58:00;;;;;;;11.18;6.32;;;;;;;;;;5019199;28;20050;-82
2021/03/09 02:00:26;;;;;;;10.20;5.88;;;;;;;;;;4999830;28;20113;-76
2021/03/09 02:02:52;;;;;;;12.52;5.88;;;;;;;;;;4999318;28;20014;-78
2021/03/09 02:05:18;;;;;;;9.00;5.20;;;;;;;;;;4999361;28;20125;-78
2021/03/09 02:07:44;;;;;;;12.38;5.50;;;;;;;;;;4999339;28;20024;-75
2021/03/09 02:10:12;;;;;;;10.57;6.00;;;;;;;;;;5016732;28;20025;-73
2021/03/09 02:12:57;;;;;;;12.23;5.75;;;;;;;;;;5000304;28;20045;-73
2021/03/09 02:15:35;;;;;;;10.60;5.68;;;;;;;;;;4999328;28;20025;-75
2021/03/09 02:18:06;;;;;;;12.95;5.80;;;;;;;;;;4998822;28;20022;-74
2021/03/09 02:20:44;;;;;;;15.07;7.50;;;;;;;;;;4998757;28;20021;-74
2021/03/09 02:23:29;;;;;;;14.25;6.82;;;;;;;;;;4999347;28;20137;-75
2021/03/09 02:26:14;;;;;;;13.57;5.93;;;;;;;;;;4998961;28;20026;-73
2021/03/09 02:29:03;;;;;;;13.13;6.15;;;;;;;;;;5016564;28;20125;-73
2021/03/09 02:31:31;;;;;;;12.35;6.20;;;;;;;;;;5015843;28;20034;-72
2021/03/09 02:34:05;;;;;;;13.13;6.15;;;;;;;;;;4998601;28;20018;-72
2021/03/09 02:36:31;;;;;;;12.48;6.25;;;;;;;;;;4998644;28;20037;-73
2021/03/09 02:38:59;;;;;;;16.27;7.97;;;;;;;;;;4999037;28;20344;-73
2021/03/09 02:41:26;;;;;;;11.30;5.93;;;;;;;;;;4998546;28;20021;-74
2021/03/09 02:43:56;;;;;;;14.10;5.88;;;;;;;;;;4998140;28;20030;-75
2021/03/09 02:46:23;;;;;;;12.45;5.93;;;;;;;;;;4998657;28;20467;-74
2021/03/09 02:48:50;;;;;;;13.00;5.72;;;;;;;;;;4998377;28;20466;-74
2021/03/09 02:51:17;;;;;;;10.15;5.95;;;;;;;;;;4997673;28;20471;-73
2021/03/09 02:53:45;;;;;;;13.90;7.05;;;;;;;;;;5015523;28;20022;-75
2021/03/09 02:56:12;;;;;;;16.63;7.32;;;;;;;;;;4998552;28;20115;-75
2021/03/09 02:58:39;;;;;;;10.38;6.68;;;;;;;;;;4998454;28;20112;-73
2021/03/09 03:01:06;;;;;;;15.35;6.03;;;;;;;;;;5000078;28;20040;-74
2021/03/09 03:03:34;;;;;;;12.65;6.32;;;;;;;;;;4999572;28;20030;-74
2021/03/09 03:06:00;;;;;;;10.05;6.95;;;;;;;;;;5017304;28;20436;-78
2021/03/09 03:08:29;;;;;;;14.32;6.88;;;;;;;;;;4999296;28;20114;-76
2021/03/09 03:10:57;;;;;;;11.27;6.70;;;;;;;;;;4998113;28;20084;-75
2021/03/09 03:13:23;;;;;;;15.00;7.03;;;;;;;;;;5015637;28;20487;-73
2021/03/09 03:15:51;;;;;;;11.13;7.20;;;;;;;;;;4999148;28;20018;-74
2021/03/09 03:18:18;;;;;;;9.90;6.13;;;;;;;;;;5016597;28;20071;-74
2021/03/09 03:20:45;;;;;;;14.73;7.20;;;;;;;;;;5016395;28;20018;-75
2021/03/09 03:23:13;;;;;;;10.57;7.32;;;;;;;;;;5001290;28;20083;-76
2021/03/09 03:25:39;;;;;;;16.38;6.95;;;;;;;;;;5017272;28;20048;-76
2021/03/09 03:28:10;;;;;;;9.85;7.20;;;;;;;;;;5000873;28;20068;-79
2021/03/09 03:30:36;;;;;;;14.85;7.82;;;;;;;;;;5007118;28;20026;-78
2021/03/09 03:33:03;;;;;;;14.98;7.50;;;;;;;;;;5008822;28;20044;-77
2021/03/09 03:35:29;;;;;;;15.63;8.55;;;;;;;;;;5006473;28;20048;-76
2021/03/09 03:37:55;;;;;;;15.63;8.93;;;;;;;;;;5001630;28;20061;-76
2021/03/09 03:40:22;;;;;;;17.25;8.52;;;;;;;;;;4999819;28;20497;-77
2021/03/09 03:42:48;;;;;;;12.48;7.05;;;;;;;;;;5017702;28;20457;-76
2021/03/09 03:45:16;;;;;;;12.55;6.07;;;;;;;;;;4999586;28;20025;-76
2021/03/09 03:47:42;;;;;;;14.30;8.55;;;;;;;;;;5021932;28;20041;-75
2021/03/09 03:50:10;;;;;;;11.38;5.80;;;;;;;;;;5015350;28;20068;-77
2021/03/09 03:52:36;;;;;;;;;;;;;;;;;;5003632;28;20018;-75
2021/03/09 03:55:06;;;;;;;32.22;14.07;;;;;;;;;;5005631;28;19925;-79
2021/03/09 03:57:35;;;;;;;25.00;11.18;;;;;;;;;;5021055;28;20026;-77
2021/03/09 04:00:04;;;;;;;22.67;10.80;;;;;;;;;;5003546;28;20086;-76
2021/03/09 04:02:31;;;;;;;22.08;10.35;;;;;;;;;;5004679;28;20026;-76
2021/03/09 04:04:57;;;;;;;16.02;9.82;;;;;;;;;;5003755;28;20065;-76
2021/03/09 04:07:24;;;;;;;22.58;10.45;;;;;;;;;;4999633;28;20176;-71
2021/03/09 04:09:52;;;;;;;31.38;13.30;;;;;;;;;;4996243;28;20084;-72
2021/03/09 04:12:18;;;;;;;35.60;15.65;;;;;;;;;;5016303;28;20029;-77
2021/03/09 04:14:45;;;;;;;36.22;15.35;;;;;;;;;;5010923;28;20022;-82
2021/03/09 04:17:12;;;;;;;35.83;16.00;;;;;;;;;;5011729;28;20028;-79
2021/03/09 04:19:39;;;;;;;52.67;18.90;;;;;;;;;;5013309;28;20014;-79
2021/03/09 04:22:08;;;;;;;37.05;16.17;;;;;;;;;;5013152;28;20029;-80
2021/03/09 04:24:36;;;;;;;28.52;13.13;;;;;;;;;;5013632;28;20022;-81
2021/03/09 04:27:02;;;;;;;21.58;10.38;;;;;;;;;;5014038;28;20018;-80
2021/03/09 04:29:28;;;;;;;18.40;8.23;;;;;;;;;;5012039;28;20048;-79
2021/03/09 04:31:55;;;;;;;20.15;8.88;;;;;;;;;;5012544;28;20041;-79
2021/03/09 04:34:21;;;;;;;19.15;9.02;;;;;;;;;;5013536;28;20022;-80
2021/03/09 04:36:47;;;;;;;12.07;6.90;;;;;;;;;;5011459;28;20029;-79
2021/03/09 04:39:14;;;;;;;15.57;9.20;;;;;;;;;;5012752;28;20042;-79
2021/03/09 04:41:40;;;;;;;22.02;9.38;;;;;;;;;;5008066;28;20149;-77
2021/03/09 04:44:06;;;;;;;17.45;9.05;;;;;;;;;;5002724;28;20025;-77
2021/03/09 04:46:33;;;;;;;17.20;8.02;;;;;;;;;;5001831;28;20018;-77
2021/03/09 04:48:59;;;;;;;16.13;8.23;;;;;;;;;;5006287;28;20076;-79
2021/03/09 04:51:26;;;;;;;17.05;7.82;;;;;;;;;;5023468;28;20101;-77
2021/03/09 04:53:53;;;;;;;19.50;8.70;;;;;;;;;;5003191;28;20017;-78
2021/03/09 04:56:19;;;;;;;13.15;7.13;;;;;;;;;;5003418;28;20069;-77
2021/03/09 04:58:45;;;;;;;15.40;7.20;;;;;;;;;;5001540;28;20550;-77
2021/03/09 05:01:11;;;;;;;13.00;6.93;;;;;;;;;;5019706;28;20018;-77
2021/03/09 05:03:37;;;;;;;10.25;6.18;;;;;;;;;;4992149;28;20049;-75
2021/03/09 05:06:04;;;;;;;10.15;5.82;;;;;;;;;;5014194;28;20045;-74
2021/03/09 05:08:30;;;;;;;18.20;7.65;;;;;;;;;;4998387;28;20475;-76
2021/03/09 05:10:56;;;;;;;15.68;10.15;;;;;;;;;;5000543;28;20463;-75
2021/03/09 05:13:23;;;;;;;11.50;6.25;;;;;;;;;;4999962;28;20474;-75
2021/03/09 05:15:49;;;;;;;15.45;6.60;;;;;;;;;;4998596;28;20032;-77
2021/03/09 05:18:16;;;;;;;11.95;6.28;;;;;;;;;;4999779;28;20018;-77
2021/03/09 05:20:42;;;;;;;15.63;8.87;;;;;;;;;;5001525;28;20021;-76
2021/03/09 05:23:08;;;;;;;21.55;11.45;;;;;;;;;;5002009;28;20014;-77
2021/03/09 05:25:34;;;;;;;37.45;14.65;;;;;;;;;;5016618;28;20022;-73
2021/03/09 05:28:01;;;;;;;26.08;12.40;;;;;;;;;;4999024;28;20359;-75
2021/03/09 05:30:27;;;;;;;22.42;10.45;;;;;;;;;;5001034;28;20026;-74
2021/03/09 05:32:54;;;;;;;20.10;10.88;;;;;;;;;;5000736;28;20026;-76
2021/03/09 05:35:20;;;;;;;21.25;11.88;;;;;;;;;;5000362;28;20018;-75
2021/03/09 05:37:46;;;;;;;28.15;11.55;;;;;;;;;;5003747;28;20025;-76
2021/03/09 05:40:14;;;;;;;20.03;11.60;;;;;;;;;;5004504;28;20025;-75
2021/03/09 05:42:40;;;;;;;;;;;;;;;;;;5006924;28;20080;-75
2021/03/09 05:45:07;;;;;;;18.42;10.70;;;;;;;;;;5006152;28;20326;-76
2021/03/09 05:47:37;;;;;;;21.45;9.68;;;;;;;;;;5007901;28;20089;-75
2021/03/09 05:50:06;;;;;;;21.13;11.00;;;;;;;;;;5006778;28;20030;-75
2021/03/09 05:52:33;;;;;;;24.05;11.18;;;;;;;;;;5006898;28;20121;-75
2021/03/09 05:54:59;;;;;;;20.33;10.50;;;;;;;;;;5005060;28;20026;-74
2021/03/09 05:57:26;;;;;;;19.60;9.57;;;;;;;;;;5001858;28;20340;-75
2021/03/09 05:59:55;;;;;;;14.57;8.23;;;;;;;;;;5001809;28;20076;-76
2021/03/09 06:02:21;;;;;;;23.02;11.05;;;;;;;;;;5001805;28;20017;-74
2021/03/09 06:04:47;;;;;;;30.27;14.80;;;;;;;;;;5019859;28;20013;-74
2021/03/09 06:07:17;;;;;;;25.90;10.27;;;;;;;;;;5019055;28;20459;-74
2021/03/09 06:09:43;;;;;;;16.92;7.85;;;;;;;;;;4999905;28;20046;-74
2021/03/09 06:12:09;;;;;;;18.70;9.63;;;;;;;;;;5017606;28;20076;-74
2021/03/09 06:14:40;;;;;;;13.50;6.50;;;;;;;;;;5016289;28;20471;-71
2021/03/09 06:17:06;;;;;;;16.38;7.70;;;;;;;;;;5017228;28;20080;-77
2021/03/09 06:19:43;;;;;;;15.32;7.72;;;;;;;;;;5003390;28;20475;-79
2021/03/09 06:22:09;;;;;;;14.90;8.27;;;;;;;;;;5002603;28;20056;-70
2021/03/09 06:24:35;;;;;;;25.50;10.55;;;;;;;;;;4995944;28;20563;-69
2021/03/09 06:27:01;;;;;;;25.13;11.75;;;;;;;;;;4979049;28;20046;-69
2021/03/09 06:29:28;;;;;;;18.33;9.27;;;;;;;;;;4976956;28;20038;-70
2021/03/09 06:31:57;;;;;;;17.10;8.45;;;;;;;;;;5006614;28;20105;-70
2021/03/09 06:34:33;;;;;;;21.83;8.98;;;;;;;;;;5015279;28;20017;-74
2021/03/09 06:37:03;;;;;;;26.57;11.27;;;;;;;;;;4997317;28;20029;-68
2021/03/09 06:39:49;;;;;;;28.83;12.70;;;;;;;;;;4997247;28;20121;-73
2021/03/09 06:42:17;;;;;;;19.80;8.13;;;;;;;;;;4997853;28;20018;-72
2021/03/09 06:44:48;;;;;;;40.58;17.08;;;;;;;;;;4997327;28;20013;-74
2021/03/09 06:47:14;;;;;;;46.88;18.63;;;;;;;;;;4998107;28;20363;-72
2021/03/09 06:49:53;;;;;;;67.47;26.60;;;;;;;;;;5014255;28;20366;-74
2021/03/09 06:52:22;;;;;;;57.40;20.38;;;;;;;;;;5014051;28;20030;-71
2021/03/09 06:54:51;;;;;;;55.22;24.02;;;;;;;;;;5014313;28;20093;-70
2021/03/09 06:57:17;;;;;;;25.40;10.75;;;;;;;;;;4998099;28;20129;-73
2021/03/09 06:59:44;;;;;;;49.72;21.90;;;;;;;;;;4996411;28;20414;-69
2021/03/09 07:02:12;;;;;;;62.72;27.23;;;;;;;;;;4996952;28;20032;-69
2021/03/09 07:04:40;;;;;;;43.83;19.63;;;;;;;;;;4997220;28;20040;-71
2021/03/09 07:07:06;;;;;;;;;;;;;;;;;;4997250;28;20024;-69
2021/03/09 07:09:32;;;;;;;14.48;6.13;;;;;;;;;;4996240;28;19984;-66
2021/03/09 07:11:58;;;;;;;16.25;6.47;;;;;;;;;;4996353;28;20021;-70
2021/03/09 07:14:25;;;;;;;14.70;8.15;;;;;;;;;;5014307;28;20018;-70
2021/03/09 07:16:52;;;;;;;11.73;5.95;;;;;;;;;;5014276;28;20042;-69
2021/03/09 07:19:24;;;;;;;7.47;5.15;;;;;;;;;;4996160;28;20028;-69
2021/03/09 07:21:51;;;;;;;10.88;5.68;;;;;;;;;;4996748;28;20099;-69
2021/03/09 07:24:19;;;;;;;12.15;4.85;;;;;;;;;;5013943;28;20017;-69
2021/03/09 07:26:46;;;;;;;9.07;5.05;;;;;;;;;;5013806;28;20037;-68
2021/03/09 07:29:14;;;;;;;8.43;4.22;;;;;;;;;;4987783;28;752311;-71
2021/03/09 07:31:41;;;;;;;11.00;3.38;;;;;;;;;;4997151;28;20088;-71
2021/03/09 07:34:09;;;;;;;7.32;3.42;;;;;;;;;;5014552;28;20029;-70
2021/03/09 07:36:35;;;;;;;8.35;3.92;;;;;;;;;;5014810;28;20344;-71
2021/03/09 07:39:03;;;;;;;16.75;6.43;;;;;;;;;;4996793;28;20033;-73
2021/03/09 07:41:29;;;;;;;12.85;4.40;;;;;;;;;;4996509;28;20080;-72
2021/03/09 07:43:55;;;;;;;9.05;3.13;;;;;;;;;;4996851;28;20022;-66
2021/03/09 07:46:22;;;;;;;6.55;3.03;;;;;;;;;;5000487;28;20040;-73
2021/03/09 07:48:52;;;;;;;6.75;2.05;;;;;;;;;;4998230;28;20025;-71
2021/03/09 07:51:20;;;;;;;7.80;3.63;;;;;;;;;;4987565;28;20034;-72
2021/03/09 07:54:04;;;;;;;9.32;2.28;;;;;;;;;;4987033;28;20019;-71
2021/03/09 07:56:30;;;;;;;11.88;3.05;;;;;;;;;;4986511;28;20050;-71
2021/03/09 07:59:07;;;;;;;9.43;3.20;;;;;;;;;;4983599;28;20072;-71
2021/03/09 08:01:46;;;;;;;11.50;3.22;;;;;;;;;;4983551;28;20029;-70
2021/03/09 08:04:13;;;;;;;7.22;2.65;;;;;;;;;;4986005;28;20375;-70
2021/03/09 08:06:43;;;;;;;7.97;3.05;;;;;;;;;;4985844;28;20025;-70
2021/03/09 08:09:45;;;;;;;6.32;3.60;;;;;;;;;;4985074;28;20022;-71
2021/03/09 08:12:24;;;;;;;10.38;3.75;;;;;;;;;;4888371;29;20040;-71
2021/03/09 08:14:50;;;;;;;11.80;6.40;;;;;;;;;;4981207;28;20117;-73
2021/03/09 08:17:27;;;;;;;16.35;11.40;;;;;;;;;;5006373;28;20025;-74
2021/03/09 08:19:53;;;;;;;11.18;3.72;;;;;;;;;;4996164;28;20036;-72
2021/03/09 08:22:35;;;;;;;15.27;8.65;;;;;;;;;;5010050;28;20026;-71
2021/03/09 08:25:02;;;;;;;11.68;4.00;;;;;;;;;;5013849;28;20022;-73
2021/03/09 08:27:29;;;;;;;6.93;3.28;;;;;;;;;;4995746;28;20025;-72
2021/03/09 08:30:18;;;;;;;15.52;7.47;;;;;;;;;;5013099;28;20157;-72
2021/03/09 08:32:45;;;;;;;13.30;5.28;;;;;;;;;;4996022;28;20068;-72
2021/03/09 08:35:15;;;;;;;7.32;3.00;;;;;;;;;;5013331;28;20014;-71
2021/03/09 08:37:42;;;;;;;9.57;3.75;;;;;;;;;;4995864;28;20036;-71
2021/03/09 08:40:18;;;;;;;6.35;3.90;;;;;;;;;;4996397;28;20021;-71
2021/03/09 08:43:03;;;;;;;11.23;5.45;;;;;;;;;;5013657;28;20026;-72
2021/03/09 08:45:35;;;;;;;8.75;3.13;;;;;;;;;;4996353;28;20120;-72
2021/03/09 08:48:01;;;;;;;5.88;2.72;;;;;;;;;;4996107;28;20014;-72
2021/03/09 08:50:42;;;;;;;7.07;2.72;;;;;;;;;;5013707;28;20022;-72
2021/03/09 08:53:27;;;;;;;15.13;4.50;;;;;;;;;;4997790;28;20025;-71
2021/03/09 08:55:57;;;;;;;10.60;4.45;;;;;;;;;;5017980;28;20359;-71
2021/03/09 08:58:23;;;;;;;11.88;4.47;;;;;;;;;;4999612;28;20481;-72
2021/03/09 09:00:49;;;;;;;18.13;6.97;;;;;;;;;;5016993;28;20383;-71
2021/03/09 09:03:34;;;;;;;15.80;6.63;;;;;;;;;;5017487;28;20037;-72
2021/03/09 09:06:01;;;;;;;4.35;2.83;;;;;;;;;;5000326;28;20403;-73
2021/03/09 09:08:27;;;;;;;8.05;3.40;;;;;;;;;;5017290;28;20029;-70
2021/03/09 09:10:53;;;;;;;15.30;4.47;;;;;;;;;;5017019;28;20034;-72
2021/03/09 09:13:29;;;;;;;14.07;5.30;;;;;;;;;;4999833;28;20026;-71
2021/03/09 09:15:55;;;;;;;8.07;4.18;;;;;;;;;;5017103;28;20018;-70
2021/03/09 09:18:22;;;;;;;4.53;2.47;;;;;;;;;;5016504;28;20072;-71
2021/03/09 09:20:48;;;;;;;5.82;3.33;;;;;;;;;;5017384;28;20026;-72
2021/03/09 09:23:15;;;;;;;10.98;4.25;;;;;;;;;;4999714;28;20537;-73
2021/03/09 09:25:49;;;;;;;7.78;2.85;;;;;;;;;;4999337;28;20460;-76
2021/03/09 09:28:41;;;;;;;4.97;2.90;;;;;;;;;;4997505;28;20046;-74
2021/03/09 09:31:14;;;;;;;6.03;3.15;;;;;;;;;;4995068;28;20129;-75
2021/03/09 09:33:41;;;;;;;6.65;3.25;;;;;;;;;;4999072;28;20049;-74
2021/03/09 09:36:07;;;;;;;10.43;2.92;;;;;;;;;;4999349;28;20022;-72
2021/03/09 09:38:33;;;;;;;7.80;2.88;;;;;;;;;;4998709;28;20493;-73
2021/03/09 09:41:00;;;;;;;9.45;3.00;;;;;;;;;;5016783;28;20025;-74
2021/03/09 09:43:27;;;;;;;6.38;3.13;;;;;;;;;;4995823;28;20026;-73
2021/03/09 09:45:56;;;;;;;12.10;4.18;;;;;;;;;;4998926;28;20743;-73
2021/03/09 09:48:27;;;;;;;9.15;3.65;;;;;;;;;;5016409;28;20050;-65
2021/03/09 09:50:55;;;;;;;14.70;3.33;;;;;;;;;;5016582;28;20033;-72
2021/03/09 09:53:42;;;;;;;13.60;4.47;;;;;;;;;;4998730;28;20026;-71
2021/03/09 09:56:09;;;;;;;8.48;2.58;;;;;;;;;;5016152;28;20056;-70
2021/03/09 09:58:41;;;;;;;7.03;3.70;;;;;;;;;;5016149;28;20022;-70
2021/03/09 10:01:07;;;;;;;7.90;3.45;;;;;;;;;;5016170;28;20029;-77
2021/03/09 10:03:33;;;;;;;9.45;4.75;;;;;;;;;;4998398;28;20026;-71
2021/03/09 10:06:15;;;;;;;11.02;3.45;;;;;;;;;;4996337;28;20026;-74
2021/03/09 10:08:41;;;;;;;6.75;2.97;;;;;;;;;;4979059;28;20455;-67
2021/03/09 10:11:10;;;;;;;7.55;4.38;;;;;;;;;;4979163;28;20084;-70
2021/03/09 10:13:36;;;;;;;7.18;3.42;;;;;;;;;;5008683;28;20045;-68
2021/03/09 10:16:02;;;;;;;6.00;3.38;;;;;;;;;;5016293;28;20129;-72
2021/03/09 10:18:32;;;;;;;8.55;3.80;;;;;;;;;;5015738;28;20072;-70
2021/03/09 10:21:13;;;;;;;8.98;4.60;;;;;;;;;;5016047;28;20159;-71
2021/03/09 10:23:56;;;;;;;9.38;3.90;;;;;;;;;;5015217;28;20048;-72
2021/03/09 10:26:41;;;;;;;9.20;5.07;;;;;;;;;;4998294;28;20126;-70
2021/03/09 10:29:12;;;;;;;7.90;4.35;;;;;;;;;;5015289;28;20124;-71
2021/03/09 10:31:45;;;;;;;12.98;6.28;;;;;;;;;;5015996;28;20072;-73
2021/03/09 10:34:13;;;;;;;10.30;5.15;;;;;;;;;;5014909;28;20433;-71
2021/03/09 10:36:48;;;;;;;13.18;6.65;;;;;;;;;;4997683;28;20022;-70
2021/03/09 10:39:14;;;;;;;11.52;5.30;;;;;;;;;;4998109;28;20117;-71
2021/03/09 10:41:40;;;;;;;21.00;10.48;;;;;;;;;;4997605;28;20022;-72
2021/03/09 10:44:06;;;;;;;15.88;7.70;;;;;;;;;;4998071;28;20060;-72
2021/03/09 10:46:34;;;;;;;9.23;5.50;;;;;;;;;;4997703;28;20022;-71
2021/03/09 10:49:00;;;;;;;9.85;5.72;;;;;;;;;;4997467;28;20113;-72
2021/03/09 10:51:26;;;;;;;8.38;4.55;;;;;;;;;;5015516;28;20028;-71
2021/03/09 10:53:53;;;;;;;9.95;5.40;;;;;;;;;;4997225;28;20014;-72
2021/03/09 10:56:19;;;;;;;19.92;11.23;;;;;;;;;;5015083;28;20096;-72
2021/03/09 10:58:45;;;;;;;12.88;7.70;;;;;;;;;;4997505;28;20022;-72
2021/03/09 11:01:11;;;;;;;13.75;6.82;;;;;;;;;;5014842;28;20033;-71
2021/03/09 11:03:37;;;;;;;13.88;5.13;;;;;;;;;;4997911;28;20362;-72
2021/03/09 11:06:07;;;;;;;10.30;6.55;;;;;;;;;;4997460;28;20502;-76
2021/03/09 11:08:33;;;;;;;8.23;6.03;;;;;;;;;;4997008;28;20052;-74
2021/03/09 11:10:59;;;;;;;15.15;7.15;;;;;;;;;;4997574;28;20467;-75
2021/03/09 11:13:25;;;;;;;10.23;6.13;;;;;;;;;;4997320;28;20029;-72
2021/03/09 11:15:51;;;;;;;8.25;5.13;;;;;;;;;;4996873;28;20014;-73
2021/03/09 11:18:17;;;;;;;21.20;9.70;;;;;;;;;;4997480;28;20014;-72
2021/03/09 11:20:43;;;;;;;11.60;6.18;;;;;;;;;;4997162;28;20022;-73
2021/03/09 11:23:10;;;;;;;9.00;6.20;;;;;;;;;;4997037;28;20363;-66
2021/03/09 11:25:37;;;;;;;27.58;17.33;;;;;;;;;;5003040;28;20046;-72
2021/03/09 11:28:06;;;;;;;9.30;6.30;;;;;;;;;;5005056;28;20420;-72
2021/03/09 11:30:32;;;;;;;11.50;5.78;;;;;;;;;;4988992;28;20025;-72
2021/03/09 11:32:59;;;;;;;12.02;6.88;;;;;;;;;;4987859;28;20407;-72
2021/03/09 11:35:25;;;;;;;89.55;42.50;;;;;;;;;;5005051;28;20037;-72
2021/03/09 11:37:51;;;;;;;9.93;6.13;;;;;;;;;;5004048;28;20498;-71
2021/03/09 11:40:17;;;;;;;7.82;5.47;;;;;;;;;;5004672;28;20022;-72
2021/03/09 11:42:43;;;;;;;6.65;5.25;;;;;;;;;;5004617;28;20050;-73
2021/03/09 11:45:10;;;;;;;9.60;5.03;;;;;;;;;;5002050;28;20419;-71
2021/03/09 11:47:36;;;;;;;14.55;9.77;;;;;;;;;;5002532;28;20018;-71
2021/03/09 11:50:03;;;;;;;34.17;17.13;;;;;;;;;;5004886;28;20030;-72
2021/03/09 11:52:29;;;;;;;11.32;7.63;;;;;;;;;;4984658;28;20025;-72
2021/03/09 11:54:56;;;;;;;14.25;7.68;;;;;;;;;;5002216;28;20037;-72
2021/03/09 11:57:22;;;;;;;14.25;7.68;;;;;;;;;;4985181;28;20079;-71
2021/03/09 11:59:48;;;;;;;21.60;10.40;;;;;;;;;;4986194;28;20083;-70
2021/03/09 12:02:14;;;;;;;11.80;6.68;;;;;;;;;;5010739;28;20041;-70
2021/03/09 12:04:40;;;;;;;7.57;5.25;;;;;;;;;;4996266;28;20028;-71
2021/03/09 12:07:07;;;;;;;9.40;5.95;;;;;;;;;;5014268;28;20033;-71
2021/03/09 12:09:33;;;;;;;10.10;5.82;;;;;;;;;;4995956;28;20018;-71
2021/03/09 12:11:59;;;;;;;10.13;5.38;;;;;;;;;;4996416;28;20410;-71
2021/03/09 12:14:25;;;;;;;7.97;5.03;;;;;;;;;;4992994;28;20123;-72
2021/03/09 12:16:51;;;;;;;8.60;5.00;;;;;;;;;;5001876;28;20022;-70
2021/03/09 12:19:17;;;;;;;7.93;5.45;;;;;;;;;;4986520;28;20014;-71
2021/03/09 12:21:43;;;;;;;13.15;8.02;;;;;;;;;;5004631;28;20509;-72
2021/03/09 12:24:10;;;;;;;13.05;6.10;;;;;;;;;;5013436;28;20109;-70
2021/03/09 12:26:36;;;;;;;31.25;11.50;;;;;;;;;;5002058;28;20044;-70
2021/03/09 12:29:02;;;;;;;40.00;13.77;;;;;;;;;;5001545;28;20073;-78
2021/03/09 12:31:28;;;;;;;14.13;6.47;;;;;;;;;;4987037;28;20523;-76
2021/03/09 12:33:54;;;;;;;9.23;5.38;;;;;;;;;;4986093;28;20045;-69
2021/03/09 12:36:20;;;;;;;11.98;5.95;;;;;;;;;;4983111;28;20025;-75
2021/03/09 12:38:47;;;;;;;10.10;6.07;;;;;;;;;;4985795;28;20014;-71
2021/03/09 12:41:13;;;;;;;13.80;5.38;;;;;;;;;;4997385;28;20026;-72
2021/03/09 12:43:39;;;;;;;14.80;7.68;;;;;;;;;;4977166;28;20018;-71
2021/03/09 12:46:05;;;;;;;9.52;5.88;;;;;;;;;;4982961;28;20018;-72
2021/03/09 12:48:31;;;;;;;9.35;6.63;;;;;;;;;;4983452;28;20030;-75
2021/03/09 12:50:57;;;;;;;11.68;7.28;;;;;;;;;;4986119;28;20022;-74
2021/03/09 12:53:23;;;;;;;9.52;5.65;;;;;;;;;;5003793;28;20029;-78
2021/03/09 12:55:50;;;;;;;18.48;8.45;;;;;;;;;;4984291;28;20026;-72
2021/03/09 12:58:16;;;;;;;55.15;21.25;;;;;;;;;;5002500;28;20097;-72
2021/03/09 13:00:42;;;;;;;62.67;28.45;;;;;;;;;;5004505;28;20019;-76
2021/03/09 13:03:08;;;;;;;13.35;7.43;;;;;;;;;;5003394;28;20065;-72
2021/03/09 13:05:34;;;;;;;12.00;6.45;;;;;;;;;;5000720;28;20418;-70
2021/03/09 13:08:00;;;;;;;12.95;6.15;;;;;;;;;;4983953;28;20093;-70
2021/03/09 13:10:26;;;;;;;11.70;6.70;;;;;;;;;;5001008;28;20062;-71
2021/03/09 13:12:52;;;;;;;15.60;7.28;;;;;;;;;;5003543;28;20072;-71
2021/03/09 13:15:19;;;;;;;11.57;6.43;;;;;;;;;;4987968;28;20452;-71
2021/03/09 13:17:45;;;;;;;14.48;6.93;;;;;;;;;;4987037;28;20018;-71
2021/03/09 13:20:12;;;;;;;82.00;25.88;;;;;;;;;;4985591;28;20052;-70
2021/03/09 13:22:38;;;;;;;;;;;;;;;;;;4985655;28;20053;-71
2021/03/09 13:25:05;;;;;;;9.95;5.72;;;;;;;;;;5000765;28;19906;-72
2021/03/09 13:27:31;;;;;;;18.25;7.85;;;;;;;;;;5002522;28;20026;-72
2021/03/09 13:29:57;;;;;;;13.18;6.63;;;;;;;;;;5003123;28;20203;-72
2021/03/09 13:32:23;;;;;;;14.98;9.77;;;;;;;;;;5000785;28;20038;-71
2021/03/09 13:34:50;;;;;;;13.95;6.97;;;;;;;;;;4985841;28;20065;-70
2021/03/09 13:37:16;;;;;;;10.07;6.10;;;;;;;;;;4986542;28;20076;-71
2021/03/09 13:39:42;;;;;;;10.98;6.68;;;;;;;;;;4985248;28;20061;-74
2021/03/09 13:42:08;;;;;;;8.75;6.68;;;;;;;;;;4996945;28;20018;-74
2021/03/09 13:44:34;;;;;;;14.85;8.80;;;;;;;;;;4979582;28;20110;-71
2021/03/09 13:47:01;;;;;;;12.48;7.70;;;;;;;;;;4996928;28;20078;-73
2021/03/09 13:49:27;;;;;;;24.77;9.50;;;;;;;;;;5015991;28;20025;-75
2021/03/09 13:51:53;;;;;;;22.60;13.05;;;;;;;;;;4998452;28;20037;-71
2021/03/09 13:54:19;;;;;;;11.15;7.40;;;;;;;;;;4998303;28;20075;-71
2021/03/09 13:56:45;;;;;;;11.25;6.38;;;;;;;;;;5015777;28;20033;-73
2021/03/09 13:59:12;;;;;;;10.32;6.00;;;;;;;;;;4998402;28;20014;-72
2021/03/09 14:01:38;;;;;;;10.55;6.25;;;;;;;;;;4998388;28;20029;-70
2021/03/09 14:04:05;;;;;;;12.52;6.80;;;;;;;;;;5016408;28;20018;-72
2021/03/09 14:06:31;;;;;;;10.93;7.28;;;;;;;;;;4998391;28;20513;-70
2021/03/09 14:08:57;;;;;;;20.60;8.43;;;;;;;;;;5015855;28;20040;-70
2021/03/09 14:11:23;;;;;;;22.30;12.32;;;;;;;;;;5015992;28;20033;-72
2021/03/09 14:13:49;;;;;;;20.25;12.65;;;;;;;;;;5015671;28;20034;-70
2021/03/09 14:16:15;;;;;;;9.73;7.40;;;;;;;;;;5015754;28;20028;-72
2021/03/09 14:18:41;;;;;;;10.13;6.32;;;;;;;;;;5015695;28;20367;-72
2021/03/09 14:21:08;;;;;;;13.70;7.30;;;;;;;;;;5015398;28;20112;-72
2021/03/09 14:23:34;;;;;;;12.38;6.55;;;;;;;;;;5015230;28;20056;-71
2021/03/09 14:26:00;;;;;;;15.57;8.77;;;;;;;;;;5009620;28;20030;-74
2021/03/09 14:28:26;;;;;;;11.43;4.88;;;;;;;;;;4985139;28;20057;-74
2021/03/09 14:30:55;;;;;;;47.05;28.60;;;;;;;;;;4984261;28;20367;-75
2021/03/09 14:33:26;;;;;;;93.43;56.15;;;;;;;;;;4986365;28;20064;-77
2021/03/09 14:35:57;;;;;;;77.03;39.65;;;;;;;;;;4987704;28;20033;-74
2021/03/09 14:38:24;;;;;;;46.70;27.35;;;;;;;;;;4985794;28;20019;-73
2021/03/09 14:40:55;;;;;;;56.75;34.17;;;;;;;;;;4984700;28;20113;-76
2021/03/09 14:43:21;;;;;;;14.02;9.45;;;;;;;;;;4983754;28;20034;-73